Time;durP1;ratioP1;P1;durP2;ratioP2;P2;SDS_P1;SDS_P2;PMS_P1;PMS_P2;Temp;Humidity;BMP_temperature;BMP_pressure;BME280_temperature;BME280_humidity;BME280_pressure;Samples;Min_cycle;Max_cycle;Signal;HPM_P1;HPM_P2
2022/02/21 00:00:53;;;;;;;16.45;2.97;;;;;;;;;;4915618;29;20111;-76
2022/02/21 00:03:20;;;;;;;20.00;2.45;;;;;;;;;;4909490;29;20506;-75
2022/02/21 00:05:50;;;;;;;24.92;3.80;;;;;;;;;;4914528;29;20063;-79
2022/02/21 00:08:16;;;;;;;26.35;2.67;;;;;;;;;;4915086;29;20047;-77
2022/02/21 00:10:43;;;;;;;22.58;3.60;;;;;;;;;;4913597;29;20047;-77
2022/02/21 00:13:09;;;;;;;19.05;2.83;;;;;;;;;;4899541;29;20083;-77
2022/02/21 00:15:35;;;;;;;15.20;2.45;;;;;;;;;;4899588;29;20099;-77
2022/02/21 00:18:01;;;;;;;21.15;3.00;;;;;;;;;;4912575;29;20085;-77
2022/02/21 00:20:27;;;;;;;22.15;3.50;;;;;;;;;;4899201;29;20081;-77
2022/02/21 00:22:53;;;;;;;18.70;2.70;;;;;;;;;;4898291;29;20040;-76
2022/02/21 00:25:20;;;;;;;27.08;4.53;;;;;;;;;;4893248;29;20048;-76
2022/02/21 00:27:46;;;;;;;26.17;3.88;;;;;;;;;;4900372;29;20052;-76
2022/02/21 00:30:12;;;;;;;25.55;3.83;;;;;;;;;;4910490;29;20047;-77
2022/02/21 00:32:38;;;;;;;20.42;3.33;;;;;;;;;;4910888;29;20091;-76
2022/02/21 00:35:05;;;;;;;20.60;3.67;;;;;;;;;;4899310;29;20399;-76
2022/02/21 00:37:31;;;;;;;21.02;3.60;;;;;;;;;;4913147;29;20039;-76
2022/02/21 00:39:57;;;;;;;23.15;3.78;;;;;;;;;;4915007;29;20044;-78
2022/02/21 00:42:24;;;;;;;25.50;3.15;;;;;;;;;;4897811;29;20051;-76
2022/02/21 00:44:55;;;;;;;23.08;3.85;;;;;;;;;;4911564;29;20098;-77
2022/02/21 00:47:21;;;;;;;29.27;5.82;;;;;;;;;;4916051;29;20046;-77
2022/02/21 00:49:47;;;;;;;33.30;4.60;;;;;;;;;;4904235;29;20048;-76
2022/02/21 00:52:13;;;;;;;27.85;5.13;;;;;;;;;;4898740;29;20040;-78
2022/02/21 00:54:40;;;;;;;43.85;5.13;;;;;;;;;;4909380;29;20051;-76
2022/02/21 00:57:06;;;;;;;26.92;4.40;;;;;;;;;;4912136;29;20047;-76
2022/02/21 00:59:32;;;;;;;26.45;4.05;;;;;;;;;;4912353;29;20052;-78
2022/02/21 01:01:58;;;;;;;26.98;4.40;;;;;;;;;;4913217;29;20063;-77
2022/02/21 01:04:24;;;;;;;26.75;4.38;;;;;;;;;;4910011;29;20130;-78
2022/02/21 01:06:50;;;;;;;34.10;4.60;;;;;;;;;;4906225;29;20048;-76
2022/02/21 01:09:16;;;;;;;31.95;4.07;;;;;;;;;;4899559;29;20047;-76
2022/02/21 01:11:42;;;;;;;29.52;5.43;;;;;;;;;;4898988;29;20043;-76
2022/02/21 01:14:08;;;;;;;27.25;3.95;;;;;;;;;;4899758;29;20047;-77
2022/02/21 01:16:35;;;;;;;24.27;4.05;;;;;;;;;;4887003;29;20055;-77
2022/02/21 01:19:01;;;;;;;33.13;4.55;;;;;;;;;;4903385;29;20052;-77
2022/02/21 01:21:27;;;;;;;25.05;4.10;;;;;;;;;;4887360;29;20048;-76
2022/02/21 01:23:53;;;;;;;19.25;3.63;;;;;;;;;;4909557;29;20127;-76
2022/02/21 01:26:19;;;;;;;24.75;4.55;;;;;;;;;;4913504;29;20134;-77
2022/02/21 01:28:45;;;;;;;28.00;4.53;;;;;;;;;;4917189;29;20056;-76
2022/02/21 01:31:12;;;;;;;20.77;4.88;;;;;;;;;;4914012;29;20062;-76
2022/02/21 01:33:39;;;;;;;18.67;3.50;;;;;;;;;;4908900;29;20048;-77
2022/02/21 01:36:05;;;;;;;22.90;4.32;;;;;;;;;;4900232;29;20356;-77
2022/02/21 01:38:31;;;;;;;19.10;3.60;;;;;;;;;;4918216;29;20043;-77
2022/02/21 01:40:57;;;;;;;30.33;5.15;;;;;;;;;;4914655;29;20048;-77
2022/02/21 01:43:23;;;;;;;28.27;4.70;;;;;;;;;;4898940;29;20142;-76
2022/02/21 01:45:49;;;;;;;25.58;4.32;;;;;;;;;;4893726;29;20060;-78
2022/02/21 01:48:15;;;;;;;33.08;5.80;;;;;;;;;;4901864;29;20051;-76
2022/02/21 01:50:42;;;;;;;29.08;4.82;;;;;;;;;;4917299;29;20058;-76
2022/02/21 01:53:09;;;;;;;30.75;5.47;;;;;;;;;;4909261;29;20040;-79
2022/02/21 01:55:35;;;;;;;27.00;4.38;;;;;;;;;;4892158;29;20142;-77
2022/02/21 01:58:01;;;;;;;28.40;4.68;;;;;;;;;;4896700;29;20748;-78
2022/02/21 02:00:27;;;;;;;25.58;4.72;;;;;;;;;;4899381;29;20047;-77
2022/02/21 02:02:53;;;;;;;24.38;4.30;;;;;;;;;;4899246;29;20119;-77
2022/02/21 02:05:21;;;;;;;28.50;4.47;;;;;;;;;;4910470;29;20407;-79
2022/02/21 02:07:47;;;;;;;18.80;3.58;;;;;;;;;;4918241;29;20467;-77
2022/02/21 02:10:13;;;;;;;22.02;3.45;;;;;;;;;;4914353;29;20035;-76
2022/02/21 02:12:40;;;;;;;18.88;3.45;;;;;;;;;;4915750;29;20056;-76
2022/02/21 02:15:11;;;;;;;26.35;4.63;;;;;;;;;;4899134;29;20079;-76
2022/02/21 02:17:37;;;;;;;23.27;4.72;;;;;;;;;;4901225;29;20051;-76
2022/02/21 02:20:03;;;;;;;25.05;4.85;;;;;;;;;;4901568;29;20507;-76
2022/02/21 02:22:29;;;;;;;24.55;3.85;;;;;;;;;;4911836;29;20100;-76
2022/02/21 02:24:55;;;;;;;23.55;4.80;;;;;;;;;;4885426;29;20048;-76
2022/02/21 02:27:22;;;;;;;25.73;4.18;;;;;;;;;;4901501;29;20456;-76
2022/02/21 02:29:50;;;;;;;29.23;3.83;;;;;;;;;;4903236;29;20392;-76
2022/02/21 02:32:16;;;;;;;24.83;3.67;;;;;;;;;;4912427;29;20071;-77
2022/02/21 02:34:43;;;;;;;25.85;4.25;;;;;;;;;;4919809;29;20074;-76
2022/02/21 02:37:10;;;;;;;20.25;4.53;;;;;;;;;;4916864;29;20079;-76
2022/02/21 02:39:36;;;;;;;30.45;4.25;;;;;;;;;;4900093;29;20048;-76
2022/02/21 02:42:02;;;;;;;24.55;4.03;;;;;;;;;;4895201;29;20079;-76
2022/02/21 02:44:28;;;;;;;16.92;3.33;;;;;;;;;;4887175;29;20056;-77
2022/02/21 02:46:54;;;;;;;24.08;4.05;;;;;;;;;;4898879;29;20052;-77
2022/02/21 02:49:21;;;;;;;25.58;3.60;;;;;;;;;;4898655;29;20050;-77
2022/02/21 02:51:47;;;;;;;23.38;4.60;;;;;;;;;;4918360;29;20047;-75
2022/02/21 02:54:13;;;;;;;23.60;3.85;;;;;;;;;;4914588;29;20035;-76
2022/02/21 02:56:40;;;;;;;24.60;4.68;;;;;;;;;;4899088;29;20080;-75
2022/02/21 02:59:06;;;;;;;27.27;4.60;;;;;;;;;;4897372;29;20062;-76
2022/02/21 03:01:33;;;;;;;28.17;4.32;;;;;;;;;;4913839;29;20094;-76
2022/02/21 03:03:59;;;;;;;30.88;4.70;;;;;;;;;;4916995;29;20051;-77
2022/02/21 03:06:25;;;;;;;29.88;4.28;;;;;;;;;;4905537;29;20059;-76
2022/02/21 03:08:51;;;;;;;20.80;5.40;;;;;;;;;;4900769;29;20052;-77
2022/02/21 03:11:17;;;;;;;24.80;3.92;;;;;;;;;;4914837;29;20055;-76
2022/02/21 03:13:43;;;;;;;22.13;4.15;;;;;;;;;;4901835;29;20403;-76
2022/02/21 03:16:10;;;;;;;32.50;5.00;;;;;;;;;;4897006;29;20048;-76
2022/02/21 03:18:36;;;;;;;28.67;4.28;;;;;;;;;;4909285;29;20242;-76
2022/02/21 03:21:02;;;;;;;34.25;5.18;;;;;;;;;;4912904;29;20135;-75
2022/02/21 03:23:28;;;;;;;26.73;5.65;;;;;;;;;;4910787;29;20055;-76
2022/02/21 03:25:54;;;;;;;20.35;3.70;;;;;;;;;;4913220;29;20043;-75
2022/02/21 03:28:20;;;;;;;25.20;4.30;;;;;;;;;;4881766;29;20488;-75
2022/02/21 03:30:47;;;;;;;25.67;5.28;;;;;;;;;;4901050;29;20134;-75
2022/02/21 03:33:13;;;;;;;32.67;4.82;;;;;;;;;;4897035;29;20039;-76
2022/02/21 03:35:39;;;;;;;29.83;4.82;;;;;;;;;;4912047;29;20090;-76
2022/02/21 03:38:05;;;;;;;38.33;4.93;;;;;;;;;;4908882;29;20079;-76
2022/02/21 03:40:31;;;;;;;29.10;5.22;;;;;;;;;;4885282;29;20051;-75
2022/02/21 03:42:58;;;;;;;36.17;5.40;;;;;;;;;;4914011;29;20055;-76
2022/02/21 03:45:24;;;;;;;30.70;5.32;;;;;;;;;;4913784;29;20526;-75
2022/02/21 03:47:51;;;;;;;33.28;5.40;;;;;;;;;;4914567;29;20059;-75
2022/02/21 03:50:17;;;;;;;40.35;6.07;;;;;;;;;;4907312;29;20185;-77
2022/02/21 03:52:43;;;;;;;26.75;5.50;;;;;;;;;;4916970;29;20040;-76
2022/02/21 03:55:10;;;;;;;29.38;5.65;;;;;;;;;;4900024;29;20066;-77
2022/02/21 03:57:36;;;;;;;35.75;5.95;;;;;;;;;;4897509;29;20079;-76
2022/02/21 04:00:03;;;;;;;30.95;5.05;;;;;;;;;;4884987;29;20051;-76
2022/02/21 04:02:29;;;;;;;23.02;3.75;;;;;;;;;;4911457;29;20074;-76
2022/02/21 04:04:57;;;;;;;28.42;4.78;;;;;;;;;;4915786;29;20171;-75
2022/02/21 04:07:23;;;;;;;26.10;4.95;;;;;;;;;;4900493;29;20357;-76
2022/02/21 04:09:49;;;;;;;31.52;5.35;;;;;;;;;;4911987;29;20043;-76
2022/02/21 04:12:15;;;;;;;32.63;4.35;;;;;;;;;;4899698;29;20051;-75
2022/02/21 04:14:41;;;;;;;28.45;4.68;;;;;;;;;;4883480;29;20071;-77
2022/02/21 04:17:08;;;;;;;23.13;3.95;;;;;;;;;;4898960;29;20138;-75
2022/02/21 04:19:34;;;;;;;26.58;4.55;;;;;;;;;;4882086;29;20058;-76
2022/02/21 04:22:00;;;;;;;27.17;3.95;;;;;;;;;;4897235;29;20056;-75
2022/02/21 04:24:26;;;;;;;31.95;4.38;;;;;;;;;;4886450;29;20079;-76
2022/02/21 04:26:52;;;;;;;21.70;4.22;;;;;;;;;;4915029;29;20070;-75
2022/02/21 04:29:18;;;;;;;29.05;4.30;;;;;;;;;;4898798;29;20048;-79
2022/02/21 04:31:44;;;;;;;23.27;4.20;;;;;;;;;;4879158;29;20102;-75
2022/02/21 04:34:10;;;;;;;33.45;4.78;;;;;;;;;;4914451;29;20056;-75
2022/02/21 04:36:38;;;;;;;27.85;4.97;;;;;;;;;;4898576;29;20058;-76
2022/02/21 04:39:06;;;;;;;20.80;3.75;;;;;;;;;;4913474;29;20048;-75
2022/02/21 04:41:32;;;;;;;24.63;4.78;;;;;;;;;;4913218;29;20126;-77
2022/02/21 04:43:58;;;;;;;30.38;4.30;;;;;;;;;;4891330;29;20052;-75
2022/02/21 04:46:24;;;;;;;23.10;4.60;;;;;;;;;;4899335;29;20516;-75
2022/02/21 04:48:50;;;;;;;28.98;4.47;;;;;;;;;;4897452;29;20052;-75
2022/02/21 04:51:16;;;;;;;32.30;4.40;;;;;;;;;;4900611;29;20130;-76
2022/02/21 04:53:42;;;;;;;27.77;3.72;;;;;;;;;;4905150;29;20491;-76
2022/02/21 04:56:08;;;;;;;20.77;4.03;;;;;;;;;;4887931;29;20534;-76
2022/02/21 04:58:34;;;;;;;26.75;4.78;;;;;;;;;;4913498;29;20070;-75
2022/02/21 05:01:00;;;;;;;20.98;3.53;;;;;;;;;;4914176;29;20451;-75
2022/02/21 05:03:26;;;;;;;25.92;4.13;;;;;;;;;;4912747;29;20059;-76
2022/02/21 05:05:52;;;;;;;19.95;3.53;;;;;;;;;;4899677;29;20368;-76
2022/02/21 05:08:18;;;;;;;27.83;4.97;;;;;;;;;;4914753;29;20432;-76
2022/02/21 05:10:44;;;;;;;29.20;4.53;;;;;;;;;;4902360;29;20052;-75
2022/02/21 05:13:10;;;;;;;20.55;3.83;;;;;;;;;;4917839;29;20047;-75
2022/02/21 05:15:37;;;;;;;25.25;3.83;;;;;;;;;;4911623;29;20048;-75
2022/02/21 05:18:03;;;;;;;22.25;4.30;;;;;;;;;;4887415;29;20052;-76
2022/02/21 05:20:29;;;;;;;26.75;4.47;;;;;;;;;;4917880;29;20480;-77
2022/02/21 05:22:55;;;;;;;22.70;3.88;;;;;;;;;;4891786;29;20051;-75
2022/02/21 05:25:21;;;;;;;27.73;4.07;;;;;;;;;;4911693;29;20040;-75
2022/02/21 05:27:47;;;;;;;17.77;3.45;;;;;;;;;;4913236;29;20062;-76
2022/02/21 05:30:14;;;;;;;21.90;4.03;;;;;;;;;;4885439;29;20048;-75
2022/02/21 05:32:41;;;;;;;24.48;4.50;;;;;;;;;;4902767;29;20098;-75
2022/02/21 05:35:07;;;;;;;24.30;3.85;;;;;;;;;;4917924;29;20036;-75
2022/02/21 05:37:33;;;;;;;28.70;4.55;;;;;;;;;;4908457;29;20060;-75
2022/02/21 05:39:59;;;;;;;24.10;5.10;;;;;;;;;;4883915;29;20059;-76
2022/02/21 05:42:25;;;;;;;20.15;3.40;;;;;;;;;;4896213;29;20071;-75
2022/02/21 05:44:52;;;;;;;27.40;4.38;;;;;;;;;;4902313;29;20392;-75
2022/02/21 05:47:18;;;;;;;28.88;4.20;;;;;;;;;;4890946;29;20043;-76
2022/02/21 05:49:44;;;;;;;23.42;3.53;;;;;;;;;;4913662;29;20044;-77
2022/02/21 05:52:10;;;;;;;18.80;3.60;;;;;;;;;;4883764;29;20084;-75
2022/02/21 05:54:36;;;;;;;23.20;3.33;;;;;;;;;;4898365;29;20040;-74
2022/02/21 05:57:02;;;;;;;23.75;4.13;;;;;;;;;;4899484;29;20048;-77
2022/02/21 05:59:28;;;;;;;27.05;4.28;;;;;;;;;;4914680;29;20113;-77
2022/02/21 06:01:54;;;;;;;29.38;5.22;;;;;;;;;;4896944;29;20388;-76
2022/02/21 06:04:20;;;;;;;27.65;3.97;;;;;;;;;;4877057;29;20052;-75
2022/02/21 06:06:47;;;;;;;25.25;5.15;;;;;;;;;;4909393;29;20079;-77
2022/02/21 06:09:13;;;;;;;31.15;4.53;;;;;;;;;;4895879;29;20048;-74
2022/02/21 06:11:39;;;;;;;32.78;4.18;;;;;;;;;;4911849;29;20134;-74
2022/02/21 06:14:05;;;;;;;27.15;4.45;;;;;;;;;;4913367;29;20066;-74
2022/02/21 06:16:31;;;;;;;26.90;3.72;;;;;;;;;;4914569;29;20040;-74
2022/02/21 06:18:57;;;;;;;26.42;4.35;;;;;;;;;;4898799;29;20051;-75
2022/02/21 06:21:23;;;;;;;25.48;5.13;;;;;;;;;;4912825;29;20226;-74
2022/02/21 06:23:49;;;;;;;24.60;4.40;;;;;;;;;;4913918;29;20508;-74
2022/02/21 06:26:15;;;;;;;19.35;3.30;;;;;;;;;;4916084;29;20051;-76
2022/02/21 06:28:41;;;;;;;23.02;3.20;;;;;;;;;;4914179;29;20118;-74
2022/02/21 06:31:09;;;;;;;25.38;5.22;;;;;;;;;;4913952;29;20055;-74
2022/02/21 06:33:36;;;;;;;22.35;3.83;;;;;;;;;;4914564;29;20508;-74
2022/02/21 06:36:02;;;;;;;24.40;3.75;;;;;;;;;;4883063;29;20059;-74
2022/02/21 06:38:28;;;;;;;24.25;3.63;;;;;;;;;;4916738;29;20062;-74
2022/02/21 06:40:54;;;;;;;22.73;3.97;;;;;;;;;;4884506;29;20040;-74
2022/02/21 06:43:20;;;;;;;22.50;3.75;;;;;;;;;;4892951;29;20204;-75
2022/02/21 06:45:46;;;;;;;27.15;4.03;;;;;;;;;;4898636;29;20079;-74
2022/02/21 06:48:12;;;;;;;23.35;3.60;;;;;;;;;;4902316;29;20459;-74
2022/02/21 06:50:38;;;;;;;25.25;3.88;;;;;;;;;;4911456;29;20095;-74
2022/02/21 06:53:04;;;;;;;22.17;3.92;;;;;;;;;;4895097;29;20048;-74
2022/02/21 06:55:30;;;;;;;27.90;4.75;;;;;;;;;;4897379;29;20050;-75
2022/02/21 06:57:57;;;;;;;23.67;4.82;;;;;;;;;;4898698;29;20346;-74
2022/02/21 07:00:23;;;;;;;28.65;4.30;;;;;;;;;;4896009;29;20055;-75
2022/02/21 07:02:51;;;;;;;26.02;4.32;;;;;;;;;;4882982;29;20052;-74
2022/02/21 07:05:18;;;;;;;30.13;4.88;;;;;;;;;;4911118;29;20463;-74
2022/02/21 07:07:44;;;;;;;30.13;4.70;;;;;;;;;;4910216;29;20130;-74
2022/02/21 07:10:11;;;;;;;29.85;5.65;;;;;;;;;;4906341;29;20131;-74
2022/02/21 07:12:37;;;;;;;29.50;4.88;;;;;;;;;;4902411;29;20145;-74
2022/02/21 07:15:05;;;;;;;30.38;4.70;;;;;;;;;;4908282;29;20058;-75
2022/02/21 07:17:38;;;;;;;32.45;6.22;;;;;;;;;;4890663;29;20503;-74
2022/02/21 07:20:04;;;;;;;28.67;4.47;;;;;;;;;;4900458;29;20047;-75
2022/02/21 07:22:30;;;;;;;31.38;3.88;;;;;;;;;;4906220;29;20139;-76
2022/02/21 07:24:56;;;;;;;33.17;4.70;;;;;;;;;;4911168;29;20143;-75
2022/02/21 07:27:22;;;;;;;30.25;4.93;;;;;;;;;;4897039;29;20052;-76
2022/02/21 07:29:48;;;;;;;27.13;4.70;;;;;;;;;;4897544;29;20047;-74
2022/02/21 07:32:14;;;;;;;25.90;5.40;;;;;;;;;;4900243;29;20047;-75
2022/02/21 07:34:40;;;;;;;34.45;4.40;;;;;;;;;;4908833;29;20230;-75
2022/02/21 07:37:07;;;;;;;32.75;5.32;;;;;;;;;;4901131;29;20043;-74
2022/02/21 07:39:33;;;;;;;24.00;4.45;;;;;;;;;;4908823;29;20492;-74
2022/02/21 07:41:59;;;;;;;37.30;6.63;;;;;;;;;;4908331;29;20139;-73
2022/02/21 07:44:26;;;;;;;26.65;5.13;;;;;;;;;;4881661;29;20297;-75
2022/02/21 07:46:52;;;;;;;28.85;4.45;;;;;;;;;;4897075;29;20064;-74
2022/02/21 07:49:19;;;;;;;23.83;4.22;;;;;;;;;;4878532;29;20077;-74
2022/02/21 07:51:45;;;;;;;26.23;3.92;;;;;;;;;;4889694;29;20538;-74
2022/02/21 07:54:11;;;;;;;29.50;5.50;;;;;;;;;;4881405;29;20480;-75
2022/02/21 07:56:37;;;;;;;27.08;5.32;;;;;;;;;;4866533;29;20056;-75
2022/02/21 07:59:03;;;;;;;25.35;4.07;;;;;;;;;;4894318;29;20055;-75
2022/02/21 08:01:29;;;;;;;26.90;5.50;;;;;;;;;;4895924;29;20044;-74
2022/02/21 08:03:55;;;;;;;22.35;3.72;;;;;;;;;;4880945;29;20095;-76
2022/02/21 08:06:22;;;;;;;28.63;4.43;;;;;;;;;;4882558;29;20047;-77
2022/02/21 08:08:48;;;;;;;21.00;4.60;;;;;;;;;;4858870;29;20062;-76
2022/02/21 08:11:14;;;;;;;21.70;4.00;;;;;;;;;;4890660;29;20145;-77
2022/02/21 08:13:40;;;;;;;23.33;3.95;;;;;;;;;;4859782;29;20401;-80
2022/02/21 08:16:06;;;;;;;23.00;4.15;;;;;;;;;;4911546;29;20484;-80
2022/02/21 08:18:34;;;;;;;27.60;4.63;;;;;;;;;;4879737;29;20540;-81
2022/02/21 08:21:00;;;;;;;32.90;5.82;;;;;;;;;;4895313;29;20040;-78
2022/02/21 08:23:26;;;;;;;24.10;3.90;;;;;;;;;;4876744;29;20540;-80
2022/02/21 08:25:52;;;;;;;19.85;3.63;;;;;;;;;;4908608;29;20561;-78
2022/02/21 08:28:18;;;;;;;24.83;3.58;;;;;;;;;;4896604;29;20066;-79
2022/02/21 08:30:45;;;;;;;20.88;3.42;;;;;;;;;;4880008;29;20051;-82
2022/02/21 08:33:11;;;;;;;19.35;4.30;;;;;;;;;;4877802;29;20119;-75
2022/02/21 08:35:37;;;;;;;23.48;3.30;;;;;;;;;;4891052;29;20373;-82
2022/02/21 08:38:03;;;;;;;20.60;3.25;;;;;;;;;;4864176;29;20052;-82
2022/02/21 08:40:29;;;;;;;32.58;4.72;;;;;;;;;;4884224;29;20455;-85
2022/02/21 08:42:55;;;;;;;15.32;2.45;;;;;;;;;;4892423;29;20056;-81
2022/02/21 08:45:22;;;;;;;22.85;2.53;;;;;;;;;;4868570;29;20894;-80
2022/02/21 08:47:48;;;;;;;22.70;2.90;;;;;;;;;;4881951;29;20055;-81
2022/02/21 08:50:14;;;;;;;6.85;1.10;;;;;;;;;;4898376;29;20126;-80
2022/02/21 08:52:41;;;;;;;6.07;0.98;;;;;;;;;;4896146;29;20079;-80
2022/02/21 08:55:08;;;;;;;2.78;0.80;;;;;;;;;;4899258;29;20103;-80
2022/02/21 08:57:36;;;;;;;5.60;1.00;;;;;;;;;;4911067;29;20060;-81
2022/02/21 09:00:02;;;;;;;9.95;1.05;;;;;;;;;;4895626;29;20064;-80
2022/02/21 09:02:28;;;;;;;10.77;1.50;;;;;;;;;;4882514;29;20047;-80
2022/02/21 09:04:54;;;;;;;6.55;1.20;;;;;;;;;;4897465;29;20056;-81
2022/02/21 09:07:20;;;;;;;11.23;1.77;;;;;;;;;;4911803;29;20514;-79
2022/02/21 09:09:46;;;;;;;9.05;1.40;;;;;;;;;;4897921;29;20494;-81
2022/02/21 09:12:12;;;;;;;11.50;1.80;;;;;;;;;;4882123;29;20434;-78
2022/02/21 09:14:40;;;;;;;10.57;2.15;;;;;;;;;;4913590;29;20487;-78
2022/02/21 09:17:06;;;;;;;6.97;1.35;;;;;;;;;;4912463;29;20047;-77
2022/02/21 09:19:32;;;;;;;9.38;1.30;;;;;;;;;;4911898;29;20625;-77
2022/02/21 09:21:58;;;;;;;8.00;1.60;;;;;;;;;;4895064;29;20098;-76
2022/02/21 09:24:24;;;;;;;5.63;0.93;;;;;;;;;;4868523;29;20136;-77
2022/02/21 09:26:50;;;;;;;9.15;1.50;;;;;;;;;;4899602;29;20052;-78
2022/02/21 09:29:17;;;;;;;6.13;0.93;;;;;;;;;;4901028;29;20076;-77
2022/02/21 09:31:43;;;;;;;9.45;1.25;;;;;;;;;;4898195;29;20070;-76
2022/02/21 09:34:09;;;;;;;6.53;1.40;;;;;;;;;;4900058;29;20040;-79
2022/02/21 09:36:36;;;;;;;5.15;1.20;;;;;;;;;;4875640;29;20522;-83
2022/02/21 09:39:02;;;;;;;4.95;1.20;;;;;;;;;;4902065;29;20134;-80
2022/02/21 09:41:28;;;;;;;6.00;1.27;;;;;;;;;;4897307;29;20063;-77
2022/02/21 09:43:54;;;;;;;5.40;1.15;;;;;;;;;;4905393;29;20084;-81
2022/02/21 09:46:24;;;;;;;7.72;1.63;;;;;;;;;;4895342;29;20071;-81
2022/02/21 09:48:51;;;;;;;5.28;1.10;;;;;;;;;;4911189;29;20052;-81
2022/02/21 09:51:17;;;;;;;11.00;1.10;;;;;;;;;;4897181;29;20484;-80
2022/02/21 09:53:43;;;;;;;6.75;1.45;;;;;;;;;;4892818;29;20040;-78
2022/02/21 09:56:09;;;;;;;8.25;1.40;;;;;;;;;;4910357;29;20075;-79
2022/02/21 09:58:35;;;;;;;9.70;1.67;;;;;;;;;;4881788;29;20068;-81
2022/02/21 10:01:01;;;;;;;11.52;2.08;;;;;;;;;;4896167;29;20047;-76
2022/02/21 10:03:37;;;;;;;14.15;2.00;;;;;;;;;;4894668;29;20047;-79
2022/02/21 10:06:32;;;;;;;12.98;2.38;;;;;;;;;;4892546;29;20044;-81
2022/02/21 10:09:07;;;;;;;19.42;2.42;;;;;;;;;;4880786;29;20067;-81
2022/02/21 10:11:34;;;;;;;16.77;2.38;;;;;;;;;;4898451;29;20100;-81
2022/02/21 10:14:05;;;;;;;14.23;2.28;;;;;;;;;;4911060;29;20048;-81
2022/02/21 10:16:44;;;;;;;20.58;2.80;;;;;;;;;;4908987;29;20465;-85
2022/02/21 10:19:15;;;;;;;22.85;3.22;;;;;;;;;;4898775;29;20048;-85
2022/02/21 10:21:59;;;;;;;24.38;3.38;;;;;;;;;;4900516;29;20601;-89
2022/02/21 10:24:25;;;;;;;25.02;3.65;;;;;;;;;;4888471;29;20511;-79
2022/02/21 10:26:51;;;;;;;24.10;3.60;;;;;;;;;;4887988;29;20066;-82
2022/02/21 10:29:18;;;;;;;30.40;4.70;;;;;;;;;;4890354;29;20048;-85
2022/02/21 10:31:45;;;;;;;27.13;4.22;;;;;;;;;;4878128;29;20048;-81
2022/02/21 10:34:11;;;;;;;26.55;3.70;;;;;;;;;;4903254;29;20135;-81
2022/02/21 10:36:39;;;;;;;27.33;3.95;;;;;;;;;;4909686;29;20043;-81
2022/02/21 10:39:08;;;;;;;37.55;4.47;;;;;;;;;;4906100;29;20059;-82
2022/02/21 10:41:37;;;;;;;39.30;5.07;;;;;;;;;;4906219;29;20084;-82
2022/02/21 10:44:17;;;;;;;29.15;4.13;;;;;;;;;;4890135;29;20395;-80
2022/02/21 10:46:44;;;;;;;35.85;5.18;;;;;;;;;;4891907;29;20063;-83
2022/02/21 10:49:13;;;;;;;37.25;5.75;;;;;;;;;;4887798;29;20489;-83
2022/02/21 10:51:46;;;;;;;37.72;6.22;;;;;;;;;;4873932;29;20048;-79
2022/02/21 10:54:12;;;;;;;33.23;5.27;;;;;;;;;;4891425;29;20047;-81
2022/02/21 10:56:42;;;;;;;40.25;5.07;;;;;;;;;;4890742;29;20044;-82
2022/02/21 10:59:08;;;;;;;28.08;5.15;;;;;;;;;;4860238;29;20055;-82
2022/02/21 11:01:34;;;;;;;34.53;4.30;;;;;;;;;;4873114;29;20223;-80
2022/02/21 11:04:02;;;;;;;42.53;5.35;;;;;;;;;;4868178;29;20059;-78
2022/02/21 11:06:29;;;;;;;26.50;4.93;;;;;;;;;;4885976;29;20048;-78
2022/02/21 11:08:57;;;;;;;40.08;5.88;;;;;;;;;;4861555;29;20586;-80
2022/02/21 11:11:25;;;;;;;42.33;6.05;;;;;;;;;;4880340;29;20052;-78
2022/02/21 11:13:51;;;;;;;36.40;5.45;;;;;;;;;;4876998;29;20400;-81
2022/02/21 11:16:17;;;;;;;33.85;5.93;;;;;;;;;;4878084;29;20111;-77
2022/02/21 11:18:44;;;;;;;50.20;5.55;;;;;;;;;;4873235;29;20055;-82
2022/02/21 11:21:10;;;;;;;39.17;6.05;;;;;;;;;;4872570;29;20112;-76
2022/02/21 11:23:36;;;;;;;46.55;5.95;;;;;;;;;;4887295;29;20119;-80
2022/02/21 11:26:07;;;;;;;35.63;5.68;;;;;;;;;;4889991;29;20048;-76
2022/02/21 11:28:41;;;;;;;41.25;5.80;;;;;;;;;;4890585;29;20083;-83
2022/02/21 11:31:08;;;;;;;40.78;6.50;;;;;;;;;;4880982;29;20127;-83
2022/02/21 11:33:54;;;;;;;51.53;6.63;;;;;;;;;;4884326;29;20067;-82
2022/02/21 11:36:21;;;;;;;40.72;5.53;;;;;;;;;;4875701;29;20085;-84
2022/02/21 11:38:47;;;;;;;43.70;6.03;;;;;;;;;;4856857;29;20052;-83
2022/02/21 11:41:13;;;;;;;53.78;7.72;;;;;;;;;;4878503;29;20044;-81
2022/02/21 11:43:44;;;;;;;47.95;6.95;;;;;;;;;;4871227;29;20045;-89
2022/02/21 11:46:11;;;;;;;57.55;7.95;;;;;;;;;;4883708;29;20175;-80
2022/02/21 11:48:50;;;;;;;61.97;7.88;;;;;;;;;;4908166;29;20514;-82
2022/02/21 11:51:36;;;;;;;51.92;6.38;;;;;;;;;;4883920;29;20162;-79
2022/02/21 11:54:14;;;;;;;52.75;6.47;;;;;;;;;;4895246;29;20040;-78
2022/02/21 11:56:55;;;;;;;72.68;10.30;;;;;;;;;;4882484;29;20052;-76
2022/02/21 11:59:21;;;;;;;65.53;9.52;;;;;;;;;;4905591;29;20396;-75
2022/02/21 12:01:48;;;;;;;52.90;7.28;;;;;;;;;;4900694;29;20076;-75
2022/02/21 12:04:20;;;;;;;48.83;7.13;;;;;;;;;;4892272;29;20310;-76
2022/02/21 12:06:50;;;;;;;58.67;8.77;;;;;;;;;;4886801;29;20072;-78
2022/02/21 12:09:16;;;;;;;59.22;7.75;;;;;;;;;;4906323;29;20040;-77
2022/02/21 12:11:42;;;;;;;48.75;8.00;;;;;;;;;;4883094;29;20099;-77
2022/02/21 12:14:08;;;;;;;51.63;7.07;;;;;;;;;;4900955;29;20453;-75
2022/02/21 12:16:54;;;;;;;60.90;9.13;;;;;;;;;;4903915;29;20365;-78
2022/02/21 12:19:31;;;;;;;54.95;7.80;;;;;;;;;;4894957;29;20071;-74
2022/02/21 12:22:07;;;;;;;72.18;9.73;;;;;;;;;;4883230;29;20053;-76
2022/02/21 12:24:33;;;;;;;67.35;9.45;;;;;;;;;;4898649;29;20056;-74
2022/02/21 12:27:13;;;;;;;52.83;8.50;;;;;;;;;;4890281;29;20050;-75
2022/02/21 12:29:40;;;;;;;52.05;7.22;;;;;;;;;;4900978;29;20063;-80
2022/02/21 12:32:08;;;;;;;58.33;8.18;;;;;;;;;;4905560;29;20040;-73
2022/02/21 12:34:35;;;;;;;45.90;6.45;;;;;;;;;;4907546;29;20066;-77
2022/02/21 12:37:03;;;;;;;51.30;9.77;;;;;;;;;;4906279;29;20037;-75
2022/02/21 12:39:40;;;;;;;44.85;7.45;;;;;;;;;;4895241;29;20052;-75
2022/02/21 12:42:06;;;;;;;46.47;5.95;;;;;;;;;;4904349;29;20051;-77
2022/02/21 12:44:33;;;;;;;48.42;7.07;;;;;;;;;;4898560;29;20041;-76
2022/02/21 12:47:05;;;;;;;63.92;8.45;;;;;;;;;;4897837;29;20052;-74
2022/02/21 12:49:39;;;;;;;48.00;6.97;;;;;;;;;;4898993;29;20103;-73
2022/02/21 12:52:08;;;;;;;58.72;7.57;;;;;;;;;;4902643;29;20067;-73
2022/02/21 12:54:48;;;;;;;47.20;5.53;;;;;;;;;;4899425;29;20129;-75
2022/02/21 12:57:15;;;;;;;47.40;5.15;;;;;;;;;;4915607;29;20452;-75
2022/02/21 12:59:42;;;;;;;42.25;6.60;;;;;;;;;;4884310;29;21446;-75
2022/02/21 13:02:11;;;;;;;38.38;5.75;;;;;;;;;;4904977;29;20047;-74
2022/02/21 13:04:37;;;;;;;36.85;5.85;;;;;;;;;;4883249;29;20528;-75
2022/02/21 13:07:06;;;;;;;38.88;6.57;;;;;;;;;;4898143;29;20063;-74
2022/02/21 13:09:32;;;;;;;41.65;6.22;;;;;;;;;;4885544;29;20048;-74
2022/02/21 13:11:58;;;;;;;44.55;7.80;;;;;;;;;;4884358;29;20099;-74
2022/02/21 13:14:26;;;;;;;42.22;6.60;;;;;;;;;;4882866;29;20241;-75
2022/02/21 13:16:53;;;;;;;29.00;5.55;;;;;;;;;;4887575;29;20071;-75
2022/02/21 13:19:24;;;;;;;41.45;5.05;;;;;;;;;;4902068;29;20048;-74
2022/02/21 13:21:50;;;;;;;41.47;6.25;;;;;;;;;;4888048;29;20044;-74
2022/02/21 13:24:17;;;;;;;39.40;5.60;;;;;;;;;;4901615;29;20057;-75
2022/02/21 13:26:52;;;;;;;33.80;5.18;;;;;;;;;;4888897;29;20048;-75
2022/02/21 13:29:29;;;;;;;39.25;5.68;;;;;;;;;;4887182;29;20043;-75
2022/02/21 13:31:56;;;;;;;24.00;4.95;;;;;;;;;;4906390;29;20415;-77
2022/02/21 13:34:41;;;;;;;29.40;3.67;;;;;;;;;;4904868;29;20044;-76
2022/02/21 13:37:11;;;;;;;17.98;3.45;;;;;;;;;;4889342;29;20078;-78
2022/02/21 13:39:44;;;;;;;22.63;3.75;;;;;;;;;;4908727;29;20056;-77
2022/02/21 13:42:30;;;;;;;26.95;3.70;;;;;;;;;;4901645;29;20052;-78
2022/02/21 13:45:15;;;;;;;20.40;3.47;;;;;;;;;;4883550;29;20079;-76
2022/02/21 13:47:41;;;;;;;23.00;3.63;;;;;;;;;;4895478;29;20461;-75
2022/02/21 13:50:27;;;;;;;16.45;2.33;;;;;;;;;;4894592;29;20507;-73
2022/02/21 13:52:53;;;;;;;15.93;2.53;;;;;;;;;;4891686;29;20059;-73
2022/02/21 13:55:26;;;;;;;12.02;1.75;;;;;;;;;;4893837;29;20114;-74
2022/02/21 13:58:03;;;;;;;15.50;2.10;;;;;;;;;;4878857;29;20060;-72
2022/02/21 14:00:33;;;;;;;18.52;2.67;;;;;;;;;;4898381;29;20067;-76
2022/02/21 14:02:59;;;;;;;10.43;2.13;;;;;;;;;;4896999;29;20528;-76
2022/02/21 14:05:25;;;;;;;10.50;1.38;;;;;;;;;;4870984;29;20154;-76
2022/02/21 14:07:51;;;;;;;7.13;1.30;;;;;;;;;;4892944;29;20095;-77
2022/02/21 14:10:21;;;;;;;14.00;2.42;;;;;;;;;;4864628;29;20055;-76
2022/02/21 14:12:58;;;;;;;11.23;1.58;;;;;;;;;;4878012;29;20503;-77
2022/02/21 14:15:24;;;;;;;11.25;1.67;;;;;;;;;;4896492;29;20084;-77
2022/02/21 14:17:51;;;;;;;9.10;1.27;;;;;;;;;;4879275;29;20039;-75
2022/02/21 14:20:17;;;;;;;9.30;1.73;;;;;;;;;;4895461;29;20084;-76
2022/02/21 14:22:43;;;;;;;11.23;1.50;;;;;;;;;;4896551;29;20055;-80
2022/02/21 14:25:09;;;;;;;13.60;1.67;;;;;;;;;;4879935;29;20110;-79
2022/02/21 14:27:35;;;;;;;8.88;2.15;;;;;;;;;;4896857;29;20182;-76
2022/02/21 14:30:01;;;;;;;10.73;1.60;;;;;;;;;;4879316;29;20044;-76
2022/02/21 14:32:27;;;;;;;8.82;1.35;;;;;;;;;;4867097;29;20071;-76